createdAt,value
2023-01-30T00:01:41.670Z,94.52
2023-01-30T00:04:08.352Z,94.82
2023-01-30T00:06:34.934Z,95.52
2023-01-30T00:09:01.634Z,95.71
2023-01-30T00:11:30.135Z,96.68
2023-01-30T00:13:57.110Z,97.45
2023-01-30T00:16:23.916Z,98.23
2023-01-30T00:18:50.892Z,98.29
2023-01-30T00:21:18.009Z,98.94
2023-01-30T00:23:45.044Z,99.06
2023-01-30T00:26:12.245Z,99.42
2023-01-30T00:28:39.803Z,99.12
2023-01-30T00:31:07.304Z,99.10
2023-01-30T00:33:34.011Z,99.14
2023-01-30T00:36:02.561Z,99.27
2023-01-30T00:38:29.317Z,99.69
2023-01-30T00:40:56.217Z,99.27
2023-01-30T00:43:41.419Z,99.06
2023-01-30T00:46:41.668Z,98.79
2023-01-30T00:49:08.324Z,99.24
2023-01-30T00:51:34.905Z,99.07
2023-01-30T00:54:01.479Z,99.52
2023-01-30T00:56:28.175Z,99.25
2023-01-30T00:58:54.909Z,99.06
2023-01-30T01:01:21.496Z,98.53
2023-01-30T01:03:48.289Z,97.86
2023-01-30T01:06:14.899Z,97.74
2023-01-30T01:08:41.517Z,97.70
2023-01-30T01:11:08.182Z,97.40
2023-01-30T01:13:35.164Z,97.39
2023-01-30T01:16:01.958Z,97.80
2023-01-30T01:18:28.642Z,97.83
2023-01-30T01:20:55.306Z,97.42
2023-01-30T01:23:22.009Z,97.18
2023-01-30T01:25:48.612Z,96.84
2023-01-30T01:28:15.939Z,97.30
2023-01-30T01:30:42.577Z,97.06
2023-01-30T01:33:09.215Z,97.12
2023-01-30T01:35:40.873Z,96.97
2023-01-30T01:38:07.533Z,97.16
2023-01-30T01:40:52.780Z,97.43
2023-01-30T01:43:22.205Z,97.27
2023-01-30T01:45:52.310Z,97.00
2023-01-30T01:48:45.068Z,97.80
2023-01-30T01:51:18.132Z,98.29
2023-01-30T01:53:56.909Z,98.02
2023-01-30T01:56:24.419Z,97.95
2023-01-30T01:58:56.076Z,97.82
2023-01-30T02:01:23.144Z,97.66
2023-01-30T02:03:56.763Z,97.90
2023-01-30T02:06:23.558Z,97.89
2023-01-30T02:08:54.758Z,97.78
2023-01-30T02:11:46.376Z,97.75
2023-01-30T02:14:14.554Z,97.83
2023-01-30T02:16:42.953Z,97.73
2023-01-30T02:19:22.730Z,97.66
2023-01-30T02:22:12.345Z,97.89
2023-01-30T02:25:06.476Z,97.92
2023-01-30T02:27:42.154Z,97.89
2023-01-30T02:30:11.460Z,97.94
2023-01-30T02:32:43.932Z,98.04
2023-01-30T02:35:28.472Z,98.16
2023-01-30T02:38:07.234Z,98.06
2023-01-30T02:40:57.513Z,98.00
2023-01-30T02:43:24.107Z,98.51
2023-01-30T02:45:56.472Z,98.44
2023-01-30T02:48:30.200Z,98.27
2023-01-30T02:51:05.664Z,98.52
2023-01-30T02:53:36.777Z,98.32
2023-01-30T02:56:03.637Z,98.58
2023-01-30T02:58:44.508Z,99.05
2023-01-30T03:01:33.064Z,98.71
2023-01-30T03:04:27.769Z,98.78
2023-01-30T03:07:12.637Z,99.22
2023-01-30T03:09:51.146Z,99.27
2023-01-30T03:12:46.831Z,99.56
2023-01-30T03:15:23.360Z,100.00
2023-01-30T03:17:50.251Z,100.00
2023-01-30T03:20:20.027Z,100.00
2023-01-30T03:22:47.293Z,100.00
2023-01-30T03:25:19.520Z,100.00
2023-01-30T03:27:46.752Z,100.00
2023-01-30T03:30:13.677Z,100.00
2023-01-30T03:32:40.302Z,100.00
2023-01-30T03:35:07.195Z,100.00
2023-01-30T03:37:33.992Z,100.00
2023-01-30T03:40:00.824Z,100.00
2023-01-30T03:42:27.543Z,100.00
2023-01-30T03:44:54.167Z,100.00
2023-01-30T03:47:20.766Z,100.00
2023-01-30T03:49:47.442Z,100.00
2023-01-30T03:52:14.101Z,100.00
2023-01-30T03:54:40.698Z,100.00
2023-01-30T03:57:07.302Z,100.00
2023-01-30T03:59:33.947Z,100.00
2023-01-30T04:02:00.606Z,100.00
2023-01-30T04:04:27.230Z,100.00
2023-01-30T04:06:53.808Z,100.00
2023-01-30T04:09:20.495Z,100.00
2023-01-30T04:11:47.135Z,100.00
2023-01-30T04:14:13.789Z,100.00
2023-01-30T04:16:40.703Z,100.00
2023-01-30T04:19:07.332Z,100.00
2023-01-30T04:21:34.285Z,100.00
2023-01-30T04:24:00.948Z,100.00
2023-01-30T04:26:27.594Z,100.00
2023-01-30T04:28:54.352Z,100.00
2023-01-30T04:31:21.001Z,100.00
2023-01-30T04:33:47.632Z,100.00
2023-01-30T04:36:14.488Z,100.00
2023-01-30T04:38:41.238Z,100.00
2023-01-30T04:41:08.042Z,100.00
2023-01-30T04:43:34.731Z,100.00
2023-01-30T04:46:01.385Z,100.00
2023-01-30T04:48:28.338Z,100.00
2023-01-30T04:50:56.606Z,100.00
2023-01-30T04:53:24.942Z,100.00
2023-01-30T04:55:51.677Z,100.00
2023-01-30T04:58:19.597Z,100.00
2023-01-30T05:00:47.458Z,100.00
2023-01-30T05:03:15.200Z,100.00
2023-01-30T05:05:42.041Z,100.00
2023-01-30T05:08:08.909Z,100.00
2023-01-30T05:10:35.666Z,100.00
2023-01-30T05:13:05.964Z,100.00
2023-01-30T05:15:33.633Z,100.00
2023-01-30T05:18:01.021Z,100.00
2023-01-30T05:20:27.662Z,100.00
2023-01-30T05:22:54.316Z,100.00
2023-01-30T05:25:21.165Z,100.00
2023-01-30T05:27:47.861Z,100.00
2023-01-30T05:30:14.593Z,100.00
2023-01-30T05:32:41.202Z,100.00
2023-01-30T05:35:08.192Z,100.00
2023-01-30T05:37:34.761Z,100.00
2023-01-30T05:40:01.379Z,100.00
2023-01-30T05:42:27.976Z,100.00
2023-01-30T05:44:54.631Z,100.00
2023-01-30T05:47:21.247Z,100.00
2023-01-30T05:49:47.889Z,100.00
2023-01-30T05:52:14.511Z,100.00
2023-01-30T05:54:41.100Z,100.00
2023-01-30T05:57:07.733Z,100.00
2023-01-30T05:59:34.359Z,100.00
2023-01-30T06:02:00.991Z,100.00
2023-01-30T06:04:27.604Z,100.00
2023-01-30T06:06:54.216Z,100.00
2023-01-30T06:09:20.854Z,100.00
2023-01-30T06:11:47.523Z,100.00
2023-01-30T06:14:14.161Z,100.00
2023-01-30T06:16:40.876Z,100.00
2023-01-30T06:19:08.413Z,100.00
2023-01-30T06:21:35.065Z,100.00
2023-01-30T06:24:02.374Z,100.00
2023-01-30T06:26:29.193Z,100.00
2023-01-30T06:28:55.854Z,100.00
2023-01-30T06:31:22.616Z,100.00
2023-01-30T06:33:49.513Z,100.00
2023-01-30T06:36:16.152Z,100.00
2023-01-30T06:38:42.808Z,100.00
2023-01-30T06:41:09.673Z,100.00
2023-01-30T06:43:36.301Z,100.00
2023-01-30T06:46:03.074Z,100.00
2023-01-30T06:48:29.696Z,100.00
2023-01-30T06:50:56.406Z,100.00
2023-01-30T06:53:25.419Z,100.00
2023-01-30T06:55:52.039Z,100.00
2023-01-30T06:58:18.877Z,100.00
2023-01-30T07:00:45.528Z,100.00
2023-01-30T07:03:13.896Z,100.00
2023-01-30T07:05:41.658Z,100.00
2023-01-30T07:08:08.801Z,100.00
2023-01-30T07:10:36.024Z,100.00
2023-01-30T07:13:03.730Z,100.00
2023-01-30T07:15:30.863Z,100.00
2023-01-30T07:17:57.470Z,100.00
2023-01-30T07:20:24.251Z,100.00
2023-01-30T07:22:55.478Z,100.00
2023-01-30T07:25:26.043Z,100.00
2023-01-30T07:27:53.599Z,100.00
2023-01-30T07:30:20.796Z,100.00
2023-01-30T07:32:51.638Z,100.00
2023-01-30T07:35:19.380Z,100.00
2023-01-30T07:37:50.451Z,100.00
2023-01-30T07:40:18.735Z,100.00
2023-01-30T07:42:56.943Z,100.00
2023-01-30T07:45:24.021Z,100.00
2023-01-30T07:47:50.767Z,100.00
2023-01-30T07:50:18.021Z,100.00
2023-01-30T07:52:45.003Z,100.00
2023-01-30T07:55:11.654Z,100.00
2023-01-30T07:57:38.209Z,100.00
2023-01-30T08:00:05.529Z,100.00
2023-01-30T08:02:32.112Z,100.00
2023-01-30T08:04:58.745Z,100.00
2023-01-30T08:07:25.372Z,100.00
2023-01-30T08:09:52.620Z,100.00
2023-01-30T08:12:19.242Z,100.00
2023-01-30T08:14:45.906Z,100.00
2023-01-30T08:17:12.799Z,100.00
2023-01-30T08:19:39.394Z,100.00
2023-01-30T08:22:05.971Z,100.00
2023-01-30T08:24:32.564Z,100.00
2023-01-30T08:27:00.348Z,100.00
2023-01-30T08:29:26.974Z,100.00
2023-01-30T08:31:57.904Z,100.00
2023-01-30T08:34:25.265Z,100.00
2023-01-30T08:36:52.134Z,100.00
2023-01-30T08:39:18.863Z,100.00
2023-01-30T08:41:45.530Z,100.00
2023-01-30T08:44:12.691Z,100.00
2023-01-30T08:46:40.041Z,100.00
2023-01-30T08:49:06.978Z,100.00
2023-01-30T08:51:33.787Z,100.00
2023-01-30T08:54:00.403Z,100.00
2023-01-30T08:56:27.052Z,100.00
2023-01-30T08:58:53.761Z,100.00
2023-01-30T09:01:20.447Z,100.00
2023-01-30T09:03:47.922Z,100.00
2023-01-30T09:06:14.594Z,100.00
2023-01-30T09:08:41.249Z,100.00
2023-01-30T09:11:07.927Z,100.00
2023-01-30T09:13:35.370Z,100.00
2023-01-30T09:16:02.331Z,100.00
2023-01-30T09:18:28.974Z,100.00
2023-01-30T09:21:03.644Z,100.00
2023-01-30T09:23:30.255Z,100.00
2023-01-30T09:25:56.930Z,100.00
2023-01-30T09:28:23.652Z,100.00
2023-01-30T09:30:50.342Z,100.00
2023-01-30T09:33:20.308Z,100.00
2023-01-30T09:35:48.334Z,100.00
2023-01-30T09:38:15.151Z,100.00
2023-01-30T09:41:16.466Z,100.00
2023-01-30T09:44:08.035Z,100.00
2023-01-30T09:46:34.738Z,100.00
2023-01-30T09:49:07.549Z,100.00
2023-01-30T09:51:48.181Z,100.00
2023-01-30T09:54:32.158Z,100.00
2023-01-30T09:57:21.646Z,100.00
2023-01-30T10:00:14.278Z,100.00
2023-01-30T10:03:08.671Z,100.00
2023-01-30T10:05:47.602Z,100.00
2023-01-30T10:08:35.640Z,100.00
2023-01-30T10:11:26.453Z,100.00
2023-01-30T10:14:30.825Z,100.00
2023-01-30T10:17:09.354Z,100.00
2023-01-30T10:19:50.294Z,100.00
2023-01-30T10:22:38.685Z,100.00
2023-01-30T10:25:27.953Z,100.00
2023-01-30T10:28:04.016Z,100.00
2023-01-30T10:30:31.053Z,100.00
2023-01-30T10:33:04.299Z,100.00
2023-01-30T10:35:42.958Z,100.00
2023-01-30T10:38:20.864Z,100.00
2023-01-30T10:40:59.338Z,100.00
2023-01-30T10:43:34.270Z,100.00
2023-01-30T10:46:10.243Z,100.00
2023-01-30T10:48:55.102Z,100.00
2023-01-30T10:51:47.764Z,100.00
2023-01-30T10:54:40.018Z,100.00
2023-01-30T10:57:32.268Z,100.00
2023-01-30T11:00:33.810Z,100.00
2023-01-30T11:03:18.385Z,100.00
2023-01-30T11:05:54.524Z,100.00
2023-01-30T11:08:33.499Z,100.00
2023-01-30T11:11:01.479Z,100.00
2023-01-30T11:13:33.521Z,100.00
2023-01-30T11:16:05.980Z,100.00
2023-01-30T11:19:17.822Z,100.00
2023-01-30T11:21:26.996Z,100.00
2023-01-30T11:24:04.782Z,100.00
2023-01-30T11:26:46.686Z,100.00
2023-01-30T11:29:29.851Z,100.00
2023-01-30T11:32:02.807Z,100.00
2023-01-30T11:34:29.699Z,100.00
2023-01-30T11:37:32.915Z,100.00
2023-01-30T11:39:59.668Z,100.00
2023-01-30T11:42:31.403Z,100.00
2023-01-30T11:45:17.337Z,100.00
2023-01-30T11:48:05.194Z,100.00
2023-01-30T11:50:46.848Z,100.00
2023-01-30T11:53:29.277Z,100.00
2023-01-30T11:56:06.458Z,100.00
2023-01-30T11:58:38.677Z,100.00
2023-01-30T12:01:07.513Z,100.00
2023-01-30T12:03:44.655Z,100.00
2023-01-30T12:06:11.734Z,100.00
2023-01-30T12:08:42.857Z,100.00
2023-01-30T12:11:50.431Z,100.00
2023-01-30T12:14:21.257Z,100.00
2023-01-30T12:17:35.275Z,100.00
2023-01-30T12:20:14.140Z,100.00
2023-01-30T12:22:46.875Z,100.00
2023-01-30T12:25:22.436Z,100.00
2023-01-30T12:28:02.133Z,100.00
2023-01-30T12:30:43.564Z,100.00
2023-01-30T12:33:15.691Z,100.00
2023-01-30T12:36:03.125Z,100.00
2023-01-30T12:38:47.686Z,100.00
2023-01-30T12:41:35.606Z,100.00
2023-01-30T12:44:39.451Z,100.00
2023-01-30T12:47:12.132Z,100.00
2023-01-30T12:50:00.175Z,99.32
2023-01-30T12:52:48.283Z,100.00
2023-01-30T12:55:35.688Z,99.70
2023-01-30T12:58:20.393Z,99.95
2023-01-30T13:01:05.471Z,99.45
2023-01-30T13:03:38.021Z,99.47
2023-01-30T13:06:11.330Z,99.03
2023-01-30T13:08:53.869Z,94.97
2023-01-30T13:11:58.281Z,96.28
2023-01-30T13:14:57.040Z,94.19
2023-01-30T13:17:55.827Z,92.59
2023-01-30T13:21:01.513Z,92.71
2023-01-30T13:23:37.020Z,92.57
2023-01-30T13:26:15.143Z,91.15
2023-01-30T13:28:51.351Z,89.96
2023-01-30T13:31:24.717Z,89.18
2023-01-30T13:34:10.319Z,88.06
2023-01-30T13:36:51.956Z,89.38
2023-01-30T13:39:30.539Z,89.57
2023-01-30T13:42:00.449Z,88.78
2023-01-30T13:44:32.820Z,89.73
2023-01-30T13:47:11.932Z,89.21
2023-01-30T13:49:56.954Z,88.98
2023-01-30T13:52:47.459Z,84.94
2023-01-30T13:55:26.034Z,85.38
2023-01-30T13:58:25.104Z,86.17
2023-01-30T14:00:54.378Z,87.03
2023-01-30T14:03:25.409Z,87.88
2023-01-30T14:05:52.086Z,86.80
2023-01-30T14:08:27.933Z,86.46
2023-01-30T14:10:56.302Z,86.53
2023-01-30T14:13:27.636Z,86.24
2023-01-30T14:15:57.945Z,85.92
2023-01-30T14:18:27.385Z,85.28
2023-01-30T14:21:11.642Z,81.98
2023-01-30T14:23:38.451Z,81.72
2023-01-30T14:26:05.081Z,79.68
2023-01-30T14:28:31.669Z,76.90
2023-01-30T14:31:03.431Z,75.01
2023-01-30T14:33:47.571Z,75.88
2023-01-30T14:36:14.137Z,74.72
2023-01-30T14:38:41.600Z,74.88
2023-01-30T14:41:37.441Z,73.10
2023-01-30T14:44:04.010Z,73.96
2023-01-30T14:46:30.686Z,73.02
2023-01-30T14:49:06.799Z,72.32
2023-01-30T14:51:39.367Z,72.26
2023-01-30T14:54:11.595Z,73.05
2023-01-30T14:57:08.120Z,72.76
2023-01-30T14:59:36.784Z,74.49
2023-01-30T15:02:12.461Z,74.05
2023-01-30T15:04:47.427Z,75.36
2023-01-30T15:07:47.309Z,77.10
2023-01-30T15:10:13.928Z,76.59
2023-01-30T15:12:43.215Z,77.74
2023-01-30T15:15:29.827Z,79.61
2023-01-30T15:18:21.815Z,79.08
2023-01-30T15:21:25.973Z,78.93
2023-01-30T15:23:59.595Z,78.10
2023-01-30T15:26:50.467Z,77.53
2023-01-30T15:29:49.231Z,78.03
2023-01-30T15:32:26.770Z,77.19
2023-01-30T15:35:01.200Z,77.53
2023-01-30T15:37:34.023Z,77.86
2023-01-30T15:40:15.673Z,77.93
2023-01-30T15:42:51.519Z,77.25
2023-01-30T15:45:24.748Z,76.53
2023-01-30T15:48:06.795Z,76.83
2023-01-30T15:50:33.540Z,77.59
2023-01-30T15:53:00.403Z,77.46
2023-01-30T15:55:28.522Z,77.32
2023-01-30T15:58:09.535Z,76.91
2023-01-30T16:00:39.579Z,75.42
2023-01-30T16:03:13.218Z,75.45
2023-01-30T16:05:51.290Z,75.63
2023-01-30T16:08:37.063Z,74.80
2023-01-30T16:11:03.751Z,74.78
2023-01-30T16:13:33.219Z,74.36
2023-01-30T16:16:12.817Z,74.30
2023-01-30T16:18:42.636Z,74.57
2023-01-30T16:21:25.727Z,75.18
2023-01-30T16:24:14.160Z,75.66
2023-01-30T16:26:44.723Z,76.42
2023-01-30T16:29:23.188Z,76.52
2023-01-30T16:31:52.814Z,76.72
2023-01-30T16:34:28.350Z,76.50
2023-01-30T16:36:55.916Z,77.40
2023-01-30T16:39:34.289Z,78.16
2023-01-30T16:42:04.168Z,77.46
2023-01-30T16:44:32.254Z,78.48
2023-01-30T16:47:25.496Z,79.62
2023-01-30T16:49:54.666Z,79.42
2023-01-30T16:52:31.079Z,81.17
2023-01-30T16:55:01.015Z,82.06
2023-01-30T16:57:37.709Z,83.15
2023-01-30T17:00:31.929Z,83.99
2023-01-30T17:03:01.995Z,84.01
2023-01-30T17:05:31.451Z,84.97
2023-01-30T17:07:58.252Z,85.30
2023-01-30T17:10:28.032Z,83.93
2023-01-30T17:12:55.812Z,84.52
2023-01-30T17:15:22.427Z,83.90
2023-01-30T17:17:49.030Z,84.22
2023-01-30T17:20:16.606Z,84.19
2023-01-30T17:22:46.526Z,83.79
2023-01-30T17:25:30.222Z,83.63
2023-01-30T17:27:58.108Z,83.69
2023-01-30T17:30:24.857Z,84.36
2023-01-30T17:32:51.503Z,83.72
2023-01-30T17:35:18.633Z,84.36
2023-01-30T17:37:53.404Z,83.79
2023-01-30T17:40:46.776Z,84.19
2023-01-30T17:43:13.570Z,85.24
2023-01-30T17:45:40.557Z,85.56
2023-01-30T17:48:07.608Z,86.24
2023-01-30T17:50:35.664Z,86.41
2023-01-30T17:53:02.675Z,87.01
2023-01-30T17:55:29.364Z,87.04
2023-01-30T17:57:56.584Z,87.35
2023-01-30T18:00:23.609Z,87.87
2023-01-30T18:02:50.290Z,88.57
2023-01-30T18:05:17.035Z,88.84
2023-01-30T18:07:44.262Z,89.50
2023-01-30T18:10:15.617Z,89.20
2023-01-30T18:12:42.759Z,89.28
2023-01-30T18:15:10.598Z,89.55
2023-01-30T18:17:46.070Z,89.95
2023-01-30T18:20:15.823Z,89.94
2023-01-30T18:22:42.518Z,90.21
2023-01-30T18:25:09.990Z,89.69
2023-01-30T18:27:36.772Z,89.73
2023-01-30T18:30:03.705Z,89.78
2023-01-30T18:32:31.956Z,89.45
2023-01-30T18:35:00.099Z,89.69
2023-01-30T18:37:26.750Z,89.17
2023-01-30T18:39:53.475Z,88.85
2023-01-30T18:42:20.237Z,88.82
2023-01-30T18:44:46.916Z,89.23
2023-01-30T18:47:13.694Z,89.13
2023-01-30T18:49:40.448Z,89.00
2023-01-30T18:52:07.132Z,89.52
2023-01-30T18:54:33.997Z,89.55
2023-01-30T18:57:00.629Z,89.04
2023-01-30T18:59:27.354Z,88.98
2023-01-30T19:01:54.000Z,88.89
2023-01-30T19:04:20.638Z,88.19
2023-01-30T19:06:47.272Z,88.31
2023-01-30T19:09:16.141Z,88.63
2023-01-30T19:12:01.576Z,88.29
2023-01-30T19:14:28.322Z,88.62
2023-01-30T19:16:55.037Z,88.86
2023-01-30T19:19:21.999Z,89.21
2023-01-30T19:21:49.903Z,88.92
2023-01-30T19:24:17.075Z,88.87
2023-01-30T19:26:44.145Z,88.95
2023-01-30T19:29:11.054Z,88.89
2023-01-30T19:31:37.907Z,87.96
2023-01-30T19:34:06.325Z,87.92
2023-01-30T19:36:34.767Z,87.83
2023-01-30T19:39:03.665Z,87.76
2023-01-30T19:41:33.251Z,88.15
2023-01-30T19:44:01.730Z,88.04
2023-01-30T19:46:29.334Z,88.39
2023-01-30T19:51:28.299Z,88.13
2023-01-30T19:53:57.038Z,88.76
2023-01-30T19:56:25.492Z,88.81
2023-01-30T19:58:55.064Z,89.71
2023-01-30T20:01:24.091Z,89.33
2023-01-30T20:03:51.329Z,89.42
2023-01-30T20:06:21.375Z,89.62
2023-01-30T20:08:50.350Z,89.23
2023-01-30T20:11:19.742Z,90.10
2023-01-30T20:13:46.323Z,90.08
2023-01-30T20:16:18.464Z,89.38
2023-01-30T20:18:48.304Z,88.76
2023-01-30T20:21:19.912Z,88.62
2023-01-30T20:23:47.704Z,88.05
2023-01-30T20:26:22.461Z,87.28
2023-01-30T20:28:49.700Z,87.58
2023-01-30T20:31:19.860Z,89.41
2023-01-30T20:33:47.448Z,90.28
2023-01-30T20:36:18.658Z,90.09
2023-01-30T20:38:47.099Z,90.11
2023-01-30T20:41:16.780Z,89.53
2023-01-30T20:43:45.987Z,87.91
2023-01-30T20:46:18.262Z,86.72
2023-01-30T20:48:45.673Z,86.11
2023-01-30T20:51:18.188Z,85.48
2023-01-30T20:53:59.555Z,85.94
2023-01-30T20:56:30.922Z,85.72
2023-01-30T20:58:57.769Z,85.94
2023-01-30T21:01:25.141Z,85.26
2023-01-30T21:03:53.595Z,84.68
2023-01-30T21:06:41.532Z,84.74
2023-01-30T21:09:18.498Z,84.98
2023-01-30T21:11:45.722Z,85.06
2023-01-30T21:14:13.146Z,84.74
2023-01-30T21:16:40.382Z,83.62
2023-01-30T21:19:09.971Z,83.46
2023-01-30T21:21:45.493Z,82.66
2023-01-30T21:24:14.139Z,82.07
2023-01-30T21:26:46.003Z,82.06
2023-01-30T21:29:15.538Z,82.39
2023-01-30T21:31:43.835Z,82.89
2023-01-30T21:34:11.218Z,83.75
2023-01-30T21:36:38.036Z,83.96
2023-01-30T21:39:23.215Z,83.85
2023-01-30T21:42:08.319Z,84.31
2023-01-30T21:44:40.967Z,84.81
2023-01-30T21:47:07.792Z,85.72
2023-01-30T21:49:34.853Z,85.69
2023-01-30T21:52:01.633Z,86.54
2023-01-30T21:54:28.407Z,87.24
2023-01-30T21:56:55.688Z,89.94
2023-01-30T21:59:22.398Z,91.50
2023-01-30T22:01:49.204Z,93.26
2023-01-30T22:04:16.400Z,94.80
2023-01-30T22:06:43.657Z,95.51
2023-01-30T22:09:14.229Z,96.66
2023-01-30T22:11:41.296Z,98.34
2023-01-30T22:14:08.021Z,99.75
2023-01-30T22:16:34.741Z,100.00
2023-01-30T22:19:04.034Z,100.00
2023-01-30T22:21:33.716Z,100.00
2023-01-30T22:24:02.327Z,99.58
2023-01-30T22:26:29.237Z,99.48
2023-01-30T22:28:57.434Z,99.23
2023-01-30T22:31:25.902Z,97.60
2023-01-30T22:33:55.000Z,96.61
2023-01-30T22:36:29.468Z,96.54
2023-01-30T22:38:56.269Z,95.95
2023-01-30T22:41:25.740Z,96.89
2023-01-30T22:43:55.388Z,96.62
2023-01-30T22:46:27.702Z,96.68
2023-01-30T22:48:54.874Z,97.28
2023-01-30T22:51:24.533Z,96.74
2023-01-30T22:54:05.671Z,97.24
2023-01-30T22:56:51.575Z,98.20
2023-01-30T22:59:18.237Z,98.11
2023-01-30T23:01:47.679Z,97.52
2023-01-30T23:04:22.679Z,96.82
2023-01-30T23:06:51.903Z,96.12
2023-01-30T23:09:21.302Z,96.14
2023-01-30T23:12:09.288Z,94.55
2023-01-30T23:14:36.891Z,93.03
2023-01-30T23:17:26.870Z,92.44
2023-01-30T23:19:56.699Z,92.47
2023-01-30T23:22:23.680Z,92.40
2023-01-30T23:24:51.492Z,93.05
2023-01-30T23:27:18.873Z,92.41
2023-01-30T23:29:45.494Z,93.61
2023-01-30T23:32:12.228Z,94.21
2023-01-30T23:34:39.060Z,93.25
2023-01-30T23:37:05.824Z,94.38
2023-01-30T23:39:32.422Z,93.53
2023-01-30T23:41:59.087Z,94.34
2023-01-30T23:44:25.692Z,93.55
2023-01-30T23:46:52.689Z,93.46
2023-01-30T23:49:19.371Z,93.47
2023-01-30T23:51:46.114Z,92.81
2023-01-30T23:54:13.945Z,92.96
2023-01-30T23:56:43.713Z,92.79
2023-01-30T23:59:11.298Z,92.01
